TimeCST,TemperatureF,Dew PointF,Humidity,Sea Level PressureIn,VisibilityMPH,Wind Direction,Wind SpeedMPH,Gust SpeedMPH,PrecipitationIn,Events,Conditions,WindDirDegrees,DateUTC
12:00 AM,84,75,68,29.98,12,East,9.2,,,,Partly Cloudy,100,2012-09-01 06:00:00
3:00 AM,83,76,74,29.96,12,East,4.6,,,,Mostly Cloudy,100,2012-09-01 09:00:00
5:00 AM,80.6,75.2,84,29.95,6.2,East,5.8,-,N/A,,Scattered Clouds,100,2012-09-01 11:00:00
6:00 AM,81,76,81,29.97,12,East,4.6,,,,Partly Cloudy,100,2012-09-01 12:00:00
6:00 AM,80.6,77.0,89,29.95,6.2,East,4.6,-,N/A,,Mostly Cloudy,100,2012-09-01 12:00:00
7:00 AM,84.2,77.0,79,29.98,6.2,East,6.9,-,N/A,,Scattered Clouds,90,2012-09-01 13:00:00
8:00 AM,86.0,77.0,74,29.98,6.2,East,8.1,-,N/A,,Scattered Clouds,100,2012-09-01 14:00:00
9:00 AM,88,76,61,30.01,12,East,9.2,,,,Partly Cloudy,80,2012-09-01 15:00:00
9:00 AM,87.8,77.0,70,30.00,6.2,East,9.2,-,N/A,,Scattered Clouds,80,2012-09-01 15:00:00
10:00 AM,87.8,75.2,66,30.00,6.2,East,10.4,-,N/A,,Scattered Clouds,80,2012-09-01 16:00:00
11:00 AM,89.6,77.0,66,30.00,6.2,East,10.4,-,N/A,,Scattered Clouds,90,2012-09-01 17:00:00
12:00 PM,88,76,61,30.00,12,East,11.5,,,,Partly Cloudy,80,2012-09-01 18:00:00
12:00 PM,87.8,77.0,70,30.00,6.2,East,11.5,-,N/A,,Scattered Clouds,80,2012-09-01 18:00:00
1:00 PM,89.6,75.2,62,29.98,6.2,East,11.5,-,N/A,,Scattered Clouds,80,2012-09-01 19:00:00
2:00 PM,89.6,78.8,70,29.96,6.2,East,10.4,-,N/A,,Scattered Clouds,90,2012-09-01 20:00:00
3:00 PM,88,75,58,29.96,12,East,11.5,,,,Partly Cloudy,80,2012-09-01 21:00:00
3:00 PM,87.8,75.2,66,29.95,6.2,East,11.5,-,N/A,,Scattered Clouds,80,2012-09-01 21:00:00
4:00 PM,87.8,75.2,66,29.95,6.2,ENE,9.2,-,N/A,,Scattered Clouds,70,2012-09-01 22:00:00
5:00 PM,87.8,75.2,66,29.95,6.2,East,9.2,-,N/A,,Scattered Clouds,80,2012-09-01 23:00:00
6:00 PM,85,76,67,29.96,12,East,8.1,,,,Scattered Clouds,90,2012-09-02 00:00:00
6:00 PM,84.2,75.2,74,29.95,6.2,East,8.1,-,N/A,,Scattered Clouds,90,2012-09-02 00:00:00
9:00 PM,83,76,73,30.00,12,East,6.9,,,,Partly Cloudy,90,2012-09-02 03:00:00